Time;durP1;ratioP1;P1;durP2;ratioP2;P2;SDS_P1;SDS_P2;PMS_P1;PMS_P2;Temp;Humidity;BMP_temperature;BMP_pressure;BME280_temperature;BME280_humidity;BME280_pressure;Samples;Min_cycle;Max_cycle;Signal;HPM_P1;HPM_P2
2022/10/28 00:01:09;;;;;;;17.55;6.28;;;;;;;9.11;100.00;97549.88;4997625;28;20042;-68
2022/10/28 00:03:44;;;;;;;13.43;6.00;;;;;;;9.13;100.00;97555.78;4983473;28;20042;-69
2022/10/28 00:06:14;;;;;;;13.60;5.50;;;;;;;9.12;100.00;97561.59;4977923;28;20530;-70
2022/10/28 00:08:40;;;;;;;11.48;6.07;;;;;;;9.10;100.00;97564.66;4983167;28;20047;-69
2022/10/28 00:11:18;;;;;;;14.60;7.00;;;;;;;9.16;100.00;97567.97;4976529;28;20550;-69
2022/10/28 00:13:44;;;;;;;15.68;6.60;;;;;;;9.19;100.00;97565.38;4981749;28;20049;-69
2022/10/28 00:16:16;;;;;;;13.13;5.85;;;;;;;9.15;100.00;97558.97;4985768;28;20452;-69
2022/10/28 00:18:42;;;;;;;15.55;7.10;;;;;;;9.12;100.00;97561.59;4970392;28;20507;-69
2022/10/28 00:21:13;;;;;;;12.60;6.13;;;;;;;9.09;100.00;97562.25;4968618;28;20065;-69
2022/10/28 00:23:39;;;;;;;17.00;6.32;;;;;;;9.12;100.00;97561.59;4984886;28;20444;-70
2022/10/28 00:26:04;;;;;;;14.43;6.07;;;;;;;9.09;100.00;97554.88;4979039;28;20114;-69
2022/10/28 00:28:30;;;;;;;13.50;6.50;;;;;;;9.03;100.00;97552.69;4976830;28;20030;-69
2022/10/28 00:30:55;;;;;;;10.52;6.15;;;;;;;9.02;100.00;97545.59;4977027;28;20046;-70
2022/10/28 00:33:21;;;;;;;13.30;6.35;;;;;;;8.68;100.00;97542.03;4971010;28;20406;-69
2022/10/28 00:35:46;;;;;;;9.70;5.85;;;;;;;8.63;100.00;97545.78;4978581;28;20045;-69
2022/10/28 00:38:11;;;;;;;10.55;5.97;;;;;;;8.80;100.00;97542.09;4977814;28;20038;-69
2022/10/28 00:40:37;;;;;;;12.43;5.55;;;;;;;8.92;100.00;97541.34;4974198;28;20039;-70
2022/10/28 00:43:02;;;;;;;13.73;6.68;;;;;;;8.92;100.00;97544.88;4955978;28;20403;-70
2022/10/28 00:45:28;;;;;;;16.65;6.60;;;;;;;8.96;100.00;97534.88;4982178;28;20043;-70
2022/10/28 00:48:01;;;;;;;19.35;6.30;;;;;;;8.57;100.00;97545.19;4982947;28;20082;-71
2022/10/28 00:50:50;;;;;;;14.57;7.05;;;;;;;8.10;100.00;97537.06;4965667;28;20050;-71
2022/10/28 00:53:25;;;;;;;13.02;6.80;;;;;;;8.11;100.00;97532.44;4959637;28;20042;-69
2022/10/28 00:55:51;;;;;;;13.38;6.60;;;;;;;8.20;100.00;97533.19;4973825;28;20081;-69
2022/10/28 00:58:19;;;;;;;12.00;6.07;;;;;;;8.12;100.00;97534.03;4977981;28;20074;-71
2022/10/28 01:00:45;;;;;;;11.85;6.00;;;;;;;8.13;100.00;97536.44;4983853;28;20435;-70
2022/10/28 01:03:11;;;;;;;12.20;6.63;;;;;;;8.18;100.00;97533.50;4961337;28;20038;-71
2022/10/28 01:05:40;;;;;;;16.08;7.05;;;;;;;8.21;100.00;97532.88;4962456;28;20108;-71
2022/10/28 01:08:06;;;;;;;15.52;6.65;;;;;;;8.17;100.00;97540.09;4958597;28;20780;-69
2022/10/28 01:10:50;;;;;;;12.52;6.88;;;;;;;8.16;100.00;97537.72;4975203;28;20054;-69
2022/10/28 01:13:34;;;;;;;17.05;7.30;;;;;;;8.18;100.00;97543.63;4976328;28;20042;-70
2022/10/28 01:16:13;;;;;;;15.38;6.05;;;;;;;8.28;100.00;97540.50;4982508;28;20375;-70
2022/10/28 01:19:06;;;;;;;10.32;6.88;;;;;;;8.36;100.00;97544.34;4960775;28;20101;-70
2022/10/28 01:22:04;;;;;;;19.13;7.00;;;;;;;8.26;100.00;97545.50;4957034;28;20130;-70
2022/10/28 01:24:42;;;;;;;17.17;6.32;;;;;;;8.34;100.00;97543.88;4968495;28;20050;-72
2022/10/28 01:27:22;;;;;;;12.93;6.20;;;;;;;8.60;100.00;97547.22;4961235;28;20427;-71
2022/10/28 01:30:10;;;;;;;17.15;6.72;;;;;;;8.52;100.00;97548.09;4964626;28;20419;-72
2022/10/28 01:32:50;;;;;;;9.52;6.45;;;;;;;8.46;100.00;97541.22;4981265;28;20046;-71
2022/10/28 01:35:22;;;;;;;10.23;6.30;;;;;;;8.29;100.00;97539.38;4980135;28;20053;-72
2022/10/28 01:38:07;;;;;;;13.98;6.68;;;;;;;7.84;100.00;97537.22;4960671;28;20054;-71
2022/10/28 01:40:54;;;;;;;11.35;6.00;;;;;;;7.98;100.00;97526.09;4981257;28;20042;-71
2022/10/28 01:43:28;;;;;;;13.52;6.55;;;;;;;8.24;100.00;97534.13;4970617;28;20109;-69
2022/10/28 01:46:13;;;;;;;15.07;6.05;;;;;;;8.41;100.00;97531.28;4976676;28;20047;-71
2022/10/28 01:48:56;;;;;;;10.38;6.20;;;;;;;8.48;100.00;97529.97;4975725;28;20046;-71
2022/10/28 01:51:33;;;;;;;12.18;6.20;;;;;;;8.45;100.00;97526.00;4978432;28;20035;-70
2022/10/28 01:54:02;;;;;;;9.75;5.70;;;;;;;8.51;100.00;97516.44;4983034;28;20056;-70
2022/10/28 01:56:39;;;;;;;11.35;5.90;;;;;;;8.50;100.00;97516.78;4979505;28;20487;-69
2022/10/28 01:59:09;;;;;;;15.07;6.20;;;;;;;8.38;100.00;97517.50;4975656;28;20053;-68
2022/10/28 02:01:35;;;;;;;14.57;6.65;;;;;;;8.15;100.00;97517.78;4955821;28;20510;-70
2022/10/28 02:04:01;;;;;;;8.80;5.38;;;;;;;8.01;100.00;97511.78;4963289;28;20046;-71
2022/10/28 02:06:30;;;;;;;13.98;5.72;;;;;;;7.96;100.00;97520.16;4955584;28;20162;-71
2022/10/28 02:09:27;;;;;;;16.45;4.55;;;;;;;7.89;100.00;97520.69;4957959;28;20640;-71
2022/10/28 02:12:02;;;;;;;11.60;6.20;;;;;;;7.83;100.00;97513.81;4960397;28;20041;-71
2022/10/28 02:14:36;;;;;;;11.32;6.32;;;;;;;7.89;100.00;97517.16;4978529;28;20133;-71
2022/10/28 02:17:20;;;;;;;14.60;6.65;;;;;;;8.03;100.00;97518.53;4982299;28;20058;-70
2022/10/28 02:19:58;;;;;;;12.15;5.80;;;;;;;8.13;100.00;97509.16;4982496;28;20485;-69
2022/10/28 02:22:29;;;;;;;11.23;5.57;;;;;;;8.20;100.00;97508.63;4978237;28;20431;-71
2022/10/28 02:25:17;;;;;;;14.05;6.10;;;;;;;8.25;100.00;97505.72;4968558;28;20058;-70
2022/10/28 02:28:04;;;;;;;15.27;6.05;;;;;;;8.13;100.00;97511.06;4968535;28;20035;-70
2022/10/28 02:30:33;;;;;;;10.25;6.00;;;;;;;8.28;100.00;97505.03;4981495;28;20034;-70
2022/10/28 02:33:02;;;;;;;12.00;6.22;;;;;;;8.24;100.00;97504.88;4981869;28;20050;-70
2022/10/28 02:35:35;;;;;;;14.07;6.38;;;;;;;8.20;100.00;97503.16;4975371;28;20054;-69
2022/10/28 02:38:04;;;;;;;15.50;6.10;;;;;;;8.15;100.00;97503.34;4983855;28;20062;-69
2022/10/28 02:40:33;;;;;;;10.70;5.93;;;;;;;8.21;100.00;97510.22;4982584;28;20046;-70
2022/10/28 02:43:05;;;;;;;13.50;5.95;;;;;;;8.19;100.00;97517.94;4973833;28;20558;-70
2022/10/28 02:45:37;;;;;;;12.38;5.65;;;;;;;8.10;100.00;97520.72;4981177;28;20046;-69
2022/10/28 02:48:10;;;;;;;14.07;5.40;;;;;;;8.15;100.00;97519.72;4981925;28;20388;-69
2022/10/28 02:50:42;;;;;;;15.73;6.10;;;;;;;8.03;100.00;97520.44;4989318;28;20396;-71
2022/10/28 02:53:23;;;;;;;11.77;5.60;;;;;;;8.06;100.00;97519.00;4984052;28;20104;-71
2022/10/28 02:55:53;;;;;;;11.55;5.97;;;;;;;8.11;100.00;97516.06;4985421;28;20042;-69
2022/10/28 02:58:19;;;;;;;15.57;6.30;;;;;;;8.24;100.00;97523.19;4968552;28;20141;-69
2022/10/28 03:00:45;;;;;;;11.57;5.60;;;;;;;8.32;100.00;97525.09;4982316;28;20042;-69
2022/10/28 03:03:11;;;;;;;13.50;5.93;;;;;;;8.29;100.00;97523.00;4976433;28;20515;-69
2022/10/28 03:05:37;;;;;;;14.45;5.93;;;;;;;8.27;100.00;97516.31;4986412;28;20375;-70
2022/10/28 03:08:02;;;;;;;9.45;5.75;;;;;;;8.26;100.00;97522.88;4987562;28;20125;-69
2022/10/28 03:10:28;;;;;;;9.75;5.38;;;;;;;8.23;100.00;97516.16;4965094;28;20807;-70
2022/10/28 03:12:53;;;;;;;7.78;4.68;;;;;;;8.20;100.00;97514.09;4968313;28;20093;-70
2022/10/28 03:15:18;;;;;;;10.30;4.95;;;;;;;8.15;100.00;97517.78;4964286;28;20047;-70
2022/10/28 03:17:44;;;;;;;10.43;4.65;;;;;;;8.13;100.00;97519.28;4969187;28;20090;-71
2022/10/28 03:20:10;;;;;;;13.48;5.35;;;;;;;8.06;100.00;97521.72;4973491;28;20038;-71
2022/10/28 03:22:35;;;;;;;11.40;5.25;;;;;;;8.06;100.00;97517.06;4980310;28;20697;-70
2022/10/28 03:25:00;;;;;;;12.18;5.20;;;;;;;8.04;100.00;97514.66;4973772;28;20550;-70
2022/10/28 03:27:26;;;;;;;14.07;4.85;;;;;;;8.00;100.00;97523.84;4982929;28;20137;-69
2022/10/28 03:29:52;;;;;;;9.43;4.65;;;;;;;7.93;100.00;97529.81;4988325;28;20042;-69
2022/10/28 03:32:17;;;;;;;11.98;4.82;;;;;;;7.90;100.00;97530.44;4983833;28;20046;-69
2022/10/28 03:34:43;;;;;;;7.00;4.60;;;;;;;7.94;100.00;97525.97;4981323;28;20060;-72
2022/10/28 03:37:08;;;;;;;15.00;5.22;;;;;;;7.92;100.00;97532.84;4955180;28;20046;-71
2022/10/28 03:39:34;;;;;;;13.40;4.82;;;;;;;7.90;100.00;97543.28;4969014;28;20414;-71
2022/10/28 03:41:59;;;;;;;11.40;4.82;;;;;;;7.80;100.00;97534.34;4972414;28;20184;-70
2022/10/28 03:44:24;;;;;;;9.75;4.95;;;;;;;7.88;100.00;97534.66;4990235;28;20057;-70
2022/10/28 03:46:50;;;;;;;15.13;5.53;;;;;;;7.86;100.00;97545.88;4986120;28;20121;-70
2022/10/28 03:49:15;;;;;;;13.00;5.40;;;;;;;7.78;100.00;97533.88;4982489;28;20391;-70
2022/10/28 03:51:41;;;;;;;14.57;4.57;;;;;;;7.80;100.00;97536.28;4985168;28;20034;-70
2022/10/28 03:54:06;;;;;;;8.55;5.00;;;;;;;7.77;100.00;97532.28;4956648;28;20061;-68
2022/10/28 03:56:31;;;;;;;10.38;4.78;;;;;;;7.73;100.00;97530.56;4973579;28;20431;-69
2022/10/28 03:58:57;;;;;;;11.32;5.10;;;;;;;7.23;100.00;97526.53;4983419;28;20039;-70
2022/10/28 04:01:22;;;;;;;12.93;6.20;;;;;;;6.79;100.00;97523.88;4984286;28;20871;-71
2022/10/28 04:03:47;;;;;;;15.48;6.68;;;;;;;6.65;100.00;97524.03;4988750;28;20107;-71
2022/10/28 04:06:13;;;;;;;14.32;7.47;;;;;;;6.66;100.00;97522.13;4956128;28;20042;-71
2022/10/28 04:08:38;;;;;;;17.88;8.38;;;;;;;6.72;100.00;97520.84;4969373;28;20050;-71
2022/10/28 04:11:04;;;;;;;18.30;9.00;;;;;;;6.77;100.00;97517.16;4970003;28;20038;-69
2022/10/28 04:13:30;;;;;;;18.55;8.55;;;;;;;6.78;100.00;97518.75;4978961;28;20126;-71
2022/10/28 04:15:55;;;;;;;21.05;8.85;;;;;;;6.85;100.00;97521.78;4967050;28;20130;-72
2022/10/28 04:18:20;;;;;;;14.35;8.02;;;;;;;6.83;100.00;97524.03;4961879;28;20050;-68
2022/10/28 04:20:46;;;;;;;18.05;8.20;;;;;;;7.02;100.00;97523.69;4984046;28;20066;-69
2022/10/28 04:23:17;;;;;;;15.90;7.35;;;;;;;7.13;100.00;97521.41;4981550;28;20500;-68
2022/10/28 04:25:43;;;;;;;12.35;8.15;;;;;;;7.23;100.00;97518.38;4987175;28;20049;-69
2022/10/28 04:28:08;;;;;;;18.88;9.07;;;;;;;7.28;100.00;97520.91;4984355;28;20038;-70
2022/10/28 04:30:34;;;;;;;13.80;7.75;;;;;;;7.15;100.00;97516.44;4987003;28;20070;-70
2022/10/28 04:32:59;;;;;;;19.10;8.07;;;;;;;6.89;100.00;97520.03;4997002;28;20060;-70
2022/10/28 04:35:25;;;;;;;12.82;7.78;;;;;;;6.83;100.00;97515.88;4986627;28;20463;-69
2022/10/28 04:37:50;;;;;;;12.15;6.50;;;;;;;6.91;100.00;97514.25;4986685;28;20112;-69
2022/10/28 04:40:15;;;;;;;9.90;6.63;;;;;;;6.98;100.00;97511.84;4984115;28;20066;-69
2022/10/28 04:42:41;;;;;;;14.45;6.75;;;;;;;7.05;100.00;97515.66;5008625;28;20033;-69
2022/10/28 04:45:07;;;;;;;19.80;8.60;;;;;;;6.99;100.00;97516.19;4987144;28;20054;-69
2022/10/28 04:47:33;;;;;;;17.73;8.23;;;;;;;6.89;100.00;97511.84;4984540;28;20110;-70
2022/10/28 04:49:58;;;;;;;15.65;9.93;;;;;;;6.84;100.00;97512.00;4985367;28;20416;-69
2022/10/28 04:52:24;;;;;;;14.05;8.93;;;;;;;6.82;100.00;97506.88;4980454;28;20533;-69
2022/10/28 04:54:49;;;;;;;19.00;8.23;;;;;;;6.84;100.00;97512.84;4971970;28;20473;-70
2022/10/28 04:57:15;;;;;;;15.80;7.57;;;;;;;7.01;100.00;97516.66;4957008;28;20053;-70
2022/10/28 04:59:40;;;;;;;15.77;7.03;;;;;;;7.07;100.00;97518.06;4965073;28;20038;-69
2022/10/28 05:02:05;;;;;;;17.45;7.28;;;;;;;7.14;100.00;97504.75;4960365;28;20543;-70
2022/10/28 05:04:31;;;;;;;13.70;7.50;;;;;;;7.27;100.00;97511.13;4962723;28;20086;-70
2022/10/28 05:06:56;;;;;;;13.30;7.18;;;;;;;7.37;100.00;97512.72;4979452;28;20069;-70
2022/10/28 05:09:21;;;;;;;12.27;6.15;;;;;;;7.51;100.00;97526.13;4993960;28;20058;-71
2022/10/28 05:11:47;;;;;;;15.82;5.75;;;;;;;7.61;100.00;97523.84;4992468;28;20034;-71
2022/10/28 05:14:12;;;;;;;17.70;6.15;;;;;;;7.72;100.00;97527.00;4975219;28;20116;-70
2022/10/28 05:16:38;;;;;;;15.27;6.50;;;;;;;7.84;100.00;97523.59;4970931;28;20077;-68
2022/10/28 05:19:03;;;;;;;17.38;7.53;;;;;;;7.92;100.00;97527.41;4960381;28;20038;-69
2022/10/28 05:21:28;;;;;;;10.73;7.22;;;;;;;7.98;100.00;97517.91;4963015;28;20487;-69
2022/10/28 05:23:54;;;;;;;13.70;6.78;;;;;;;8.07;100.00;97517.84;4964216;28;20050;-69
2022/10/28 05:26:19;;;;;;;11.88;6.78;;;;;;;8.12;100.00;97512.19;4957572;28;20396;-69
2022/10/28 05:28:49;;;;;;;14.30;7.38;;;;;;;7.73;100.00;97508.75;4963635;28;20079;-70
2022/10/28 05:31:14;;;;;;;18.65;6.57;;;;;;;7.31;100.00;97503.94;4980820;28;20046;-70
2022/10/28 05:33:39;;;;;;;9.98;6.15;;;;;;;7.06;100.00;97500.16;4978215;28;20136;-70
2022/10/28 05:36:05;;;;;;;14.85;7.40;;;;;;;6.94;100.00;97502.72;4976288;28;20050;-69
2022/10/28 05:38:30;;;;;;;11.55;6.25;;;;;;;6.95;100.00;97510.56;4956553;28;20403;-69
2022/10/28 05:40:56;;;;;;;10.63;5.90;;;;;;;7.04;100.00;97505.09;4975100;28;20354;-71
2022/10/28 05:43:22;;;;;;;18.63;6.65;;;;;;;7.13;100.00;97505.06;4979160;28;20805;-70
2022/10/28 05:45:54;;;;;;;14.20;6.72;;;;;;;7.32;100.00;97516.41;4973238;28;20113;-69
2022/10/28 05:48:20;;;;;;;14.23;6.15;;;;;;;7.56;100.00;97524.03;4970324;28;20500;-70
2022/10/28 05:50:45;;;;;;;15.30;5.93;;;;;;;7.71;100.00;97519.97;4973951;28;20103;-69
2022/10/28 05:53:10;;;;;;;11.05;6.15;;;;;;;7.84;100.00;97518.94;4981497;28;20516;-69
2022/10/28 05:55:36;;;;;;;13.68;6.13;;;;;;;7.95;100.00;97521.28;4980365;28;20047;-69
2022/10/28 05:58:02;;;;;;;20.52;6.15;;;;;;;7.87;100.00;97519.41;4977345;28;20046;-69
2022/10/28 06:00:27;;;;;;;9.48;5.60;;;;;;;7.75;100.00;97520.09;4977259;28;20042;-69
2022/10/28 06:03:01;;;;;;;16.73;6.63;;;;;;;7.46;100.00;97514.28;4962659;28;20205;-69
2022/10/28 06:05:27;;;;;;;12.85;5.65;;;;;;;7.30;100.00;97512.41;4949563;28;20047;-68
2022/10/28 06:07:52;;;;;;;11.85;6.55;;;;;;;7.12;100.00;97507.00;4964247;28;20042;-68
2022/10/28 06:10:18;;;;;;;13.98;6.72;;;;;;;7.13;100.00;97507.81;4962981;28;20039;-68
2022/10/28 06:12:43;;;;;;;13.18;6.78;;;;;;;7.16;100.00;97502.50;4985880;28;20433;-69
2022/10/28 06:15:09;;;;;;;14.02;7.72;;;;;;;7.18;100.00;97502.97;4975185;28;20054;-68
2022/10/28 06:17:35;;;;;;;14.82;6.60;;;;;;;7.24;100.00;97500.91;4945966;28;20043;-70
2022/10/28 06:20:01;;;;;;;19.33;7.65;;;;;;;7.36;100.00;97530.97;4961189;28;20034;-69
2022/10/28 06:22:26;;;;;;;13.75;7.35;;;;;;;7.60;100.00;97544.06;4980913;28;20042;-69
2022/10/28 06:24:52;;;;;;;21.13;7.10;;;;;;;7.93;100.00;97562.53;4986233;28;20176;-69
2022/10/28 06:27:17;;;;;;;19.67;6.55;;;;;;;8.18;100.00;97563.53;4979450;28;20412;-69
2022/10/28 06:29:43;;;;;;;16.55;6.75;;;;;;;8.44;100.00;97550.88;4982873;28;20042;-68
2022/10/28 06:32:09;;;;;;;22.48;5.90;;;;;;;8.47;100.00;97558.41;4962888;28;20496;-69
2022/10/28 06:34:35;;;;;;;17.55;6.60;;;;;;;8.55;100.00;97561.09;4975843;28;20035;-69
2022/10/28 06:37:00;;;;;;;15.23;5.40;;;;;;;8.65;100.00;97551.69;4983383;28;20042;-69
2022/10/28 06:39:25;;;;;;;10.77;6.03;;;;;;;8.71;100.00;97552.28;4985121;28;20132;-69
2022/10/28 06:41:51;;;;;;;17.15;8.25;;;;;;;8.05;100.00;97550.94;4992798;28;20112;-69
2022/10/28 06:44:16;;;;;;;28.40;21.33;;;;;;;7.79;100.00;97545.59;4956056;28;20085;-69
2022/10/28 06:46:41;;;;;;;22.58;6.97;;;;;;;7.77;100.00;97543.19;4973204;28;20376;-71
2022/10/28 06:49:07;;;;;;;13.93;6.32;;;;;;;7.87;100.00;97533.84;4982632;28;20101;-69
2022/10/28 06:51:33;;;;;;;15.65;6.82;;;;;;;7.92;100.00;97541.81;4999430;28;20078;-69
2022/10/28 06:53:59;;;;;;;19.45;8.98;;;;;;;7.95;100.00;97548.56;4984732;28;20049;-69
2022/10/28 06:56:24;;;;;;;20.10;12.05;;;;;;;8.14;100.00;97561.78;4978643;28;20124;-69
2022/10/28 06:58:51;;;;;;;14.20;7.38;;;;;;;8.39;100.00;97562.75;4983937;28;20076;-68
2022/10/28 07:01:16;;;;;;;15.20;6.72;;;;;;;8.56;100.00;97562.69;4964874;28;20050;-70
2022/10/28 07:03:42;;;;;;;23.15;14.60;;;;;;;8.50;100.00;97569.47;4978273;28;20053;-68
2022/10/28 07:06:07;;;;;;;19.80;10.82;;;;;;;8.62;100.00;97563.28;4974451;28;20057;-70
2022/10/28 07:08:32;;;;;;;18.10;7.65;;;;;;;8.79;100.00;97565.09;4983146;28;20034;-69
2022/10/28 07:10:59;;;;;;;19.55;7.13;;;;;;;8.87;100.00;97560.69;4973692;28;20046;-70
2022/10/28 07:13:25;;;;;;;17.98;7.05;;;;;;;9.06;100.00;97569.19;4957346;28;20145;-70
2022/10/28 07:15:56;;;;;;;9.93;6.28;;;;;;;9.36;100.00;97566.31;4963147;28;20447;-69
2022/10/28 07:18:23;;;;;;;18.27;5.53;;;;;;;9.62;100.00;97565.28;4958439;28;21604;-70
2022/10/28 07:20:49;;;;;;;9.38;4.78;;;;;;;9.87;100.00;97566.13;4963116;28;20407;-69
2022/10/28 07:23:15;;;;;;;11.65;4.70;;;;;;;9.81;100.00;97570.97;4966636;28;20097;-69
2022/10/28 07:25:41;;;;;;;10.50;5.95;;;;;;;9.68;100.00;97574.84;4969559;28;20138;-69
2022/10/28 07:28:06;;;;;;;17.02;7.82;;;;;;;9.65;100.00;97581.00;4972866;28;20086;-69
2022/10/28 07:30:32;;;;;;;13.48;6.30;;;;;;;9.60;100.00;97578.47;4953730;28;20050;-70
2022/10/28 07:32:59;;;;;;;15.90;5.68;;;;;;;9.52;100.00;97580.97;4968460;28;20457;-69
2022/10/28 07:35:26;;;;;;;12.52;6.13;;;;;;;9.58;100.00;97578.81;4956450;28;20051;-70
2022/10/28 07:37:52;;;;;;;14.82;6.45;;;;;;;9.49;100.00;97586.31;4965126;28;20051;-69
2022/10/28 07:40:19;;;;;;;13.45;7.25;;;;;;;9.65;100.00;97587.28;4966880;28;20132;-69
2022/10/28 07:42:44;;;;;;;21.40;12.73;;;;;;;9.73;100.00;97588.31;4966481;28;20054;-70
2022/10/28 07:45:10;;;;;;;19.67;13.10;;;;;;;9.77;100.00;97587.28;4977641;28;20043;-69
2022/10/28 07:47:35;;;;;;;23.77;13.85;;;;;;;9.82;100.00;97582.75;4980228;28;20447;-69
2022/10/28 07:50:01;;;;;;;22.35;11.52;;;;;;;9.53;100.00;97577.09;4982204;28;20101;-69
2022/10/28 07:52:27;;;;;;;13.70;7.30;;;;;;;9.57;100.00;97588.94;4982491;28;20070;-69
2022/10/28 07:54:52;;;;;;;13.32;6.88;;;;;;;9.68;100.00;97585.78;4979242;28;20121;-69
2022/10/28 07:57:18;;;;;;;19.08;8.93;;;;;;;9.80;100.00;97590.50;4967061;28;20558;-68
2022/10/28 07:59:44;;;;;;;14.95;9.38;;;;;;;10.05;100.00;97594.06;4985558;28;20045;-68
2022/10/28 08:02:15;;;;;;;15.88;7.03;;;;;;;10.35;100.00;97586.44;4974906;28;20507;-68
2022/10/28 08:04:41;;;;;;;16.63;6.82;;;;;;;10.22;100.00;97576.59;4977956;28;20039;-68
2022/10/28 08:07:06;;;;;;;33.90;16.90;;;;;;;10.01;100.00;97573.97;4963996;28;20495;-69
2022/10/28 08:09:31;;;;;;;28.33;12.70;;;;;;;10.13;100.00;97574.75;4971045;28;20034;-68
2022/10/28 08:11:57;;;;;;;15.90;6.97;;;;;;;10.18;100.00;97578.44;4973983;28;20043;-68
2022/10/28 08:14:22;;;;;;;13.55;7.80;;;;;;;10.01;100.00;97565.75;4964157;28;20537;-69
2022/10/28 08:16:48;;;;;;;29.23;23.27;;;;;;;10.01;100.00;97558.38;4969890;28;20062;-68
2022/10/28 08:19:13;;;;;;;12.02;6.60;;;;;;;9.99;100.00;97568.03;4972976;28;20045;-68
2022/10/28 08:21:38;;;;;;;20.13;7.03;;;;;;;10.09;100.00;97573.06;4975332;28;20050;-69
2022/10/28 08:24:04;;;;;;;9.80;5.57;;;;;;;10.14;100.00;97570.91;4984655;28;20046;-69
2022/10/28 08:26:30;;;;;;;12.27;6.78;;;;;;;10.26;100.00;97567.38;4986674;28;20047;-69
2022/10/28 08:28:55;;;;;;;14.95;7.20;;;;;;;10.28;100.00;97580.69;4986938;28;20117;-68
2022/10/28 08:31:20;;;;;;;13.40;6.03;;;;;;;10.44;100.00;97592.59;4966802;28;20039;-69
2022/10/28 08:33:46;;;;;;;12.95;6.47;;;;;;;10.71;100.00;97607.53;4959217;28;20039;-69
2022/10/28 08:36:14;;;;;;;14.40;6.22;;;;;;;10.98;100.00;97593.41;4959497;28;20431;-69
2022/10/28 08:38:41;;;;;;;14.00;5.72;;;;;;;10.99;100.00;97584.03;4963788;28;20109;-69
2022/10/28 08:41:17;;;;;;;18.17;5.80;;;;;;;11.12;100.00;97607.50;4968955;28;20043;-70
2022/10/28 08:43:51;;;;;;;13.90;5.22;;;;;;;11.34;100.00;97605.38;4959678;28;20051;-70
2022/10/28 08:46:29;;;;;;;10.88;5.95;;;;;;;11.53;100.00;97594.56;4977402;28;20038;-69
2022/10/28 08:48:54;;;;;;;11.00;5.07;;;;;;;11.67;100.00;97610.59;4994666;28;20106;-70
2022/10/28 08:51:45;;;;;;;10.68;4.85;;;;;;;11.88;100.00;97604.06;4975579;28;20469;-68
2022/10/28 08:54:25;;;;;;;15.15;5.20;;;;;;;11.88;100.00;97590.34;4961162;28;20507;-69
2022/10/28 08:56:53;;;;;;;15.90;5.23;;;;;;;12.08;100.00;97597.53;4966785;28;20053;-69
2022/10/28 08:59:31;;;;;;;15.13;5.38;;;;;;;12.31;100.00;97594.97;4961772;28;20682;-69
2022/10/28 09:02:04;;;;;;;12.73;4.70;;;;;;;12.56;100.00;97590.06;4963245;28;20138;-73
2022/10/28 09:04:40;;;;;;;13.10;5.18;;;;;;;12.73;100.00;97597.13;4965693;28;20049;-69
2022/10/28 09:07:19;;;;;;;10.02;4.85;;;;;;;12.97;100.00;97589.78;4961148;28;20039;-68
2022/10/28 09:09:45;;;;;;;10.25;5.40;;;;;;;13.08;100.00;97585.28;4965502;28;20045;-69
2022/10/28 09:12:32;;;;;;;15.93;7.93;;;;;;;12.86;100.00;97592.28;4965290;28;20038;-69
2022/10/28 09:15:17;;;;;;;13.38;6.07;;;;;;;13.03;100.00;97582.81;4976477;28;20038;-68
2022/10/28 09:17:57;;;;;;;14.15;6.07;;;;;;;12.73;100.00;97579.81;4968624;28;20046;-69
2022/10/28 09:20:35;;;;;;;13.98;5.75;;;;;;;12.94;100.00;97588.53;4980323;28;20654;-69
2022/10/28 09:23:19;;;;;;;8.07;4.68;;;;;;;13.39;100.00;97581.59;4986052;28;20038;-69
2022/10/28 09:26:03;;;;;;;14.80;5.82;;;;;;;13.78;100.00;97583.50;4982546;28;20070;-68
2022/10/28 09:29:17;;;;;;;18.45;9.00;;;;;;;13.59;100.00;97589.84;4982546;28;20078;-69
2022/10/28 09:32:05;;;;;;;14.82;5.72;;;;;;;13.67;100.00;97599.03;4978065;28;20125;-69
2022/10/28 09:34:53;;;;;;;13.00;5.93;;;;;;;13.34;100.00;97589.34;4983717;28;20042;-69
2022/10/28 09:37:27;;;;;;;13.77;5.50;;;;;;;13.61;100.00;97595.78;4976630;28;20053;-69
2022/10/28 09:39:56;;;;;;;16.70;5.85;;;;;;;13.94;100.00;97600.72;4981214;28;20509;-69
2022/10/28 09:42:29;;;;;;;13.40;5.47;;;;;;;14.36;100.00;97601.00;4968453;28;20509;-69
2022/10/28 09:45:01;;;;;;;16.23;5.72;;;;;;;14.56;100.00;97605.25;4960298;28;20050;-69
2022/10/28 09:47:36;;;;;;;14.40;5.72;;;;;;;14.49;100.00;97594.91;4968626;28;20200;-70
2022/10/28 09:50:10;;;;;;;14.50;5.53;;;;;;;14.97;100.00;97588.91;4983549;28;20511;-69
2022/10/28 09:52:47;;;;;;;9.93;4.63;;;;;;;15.16;100.00;97589.94;4964137;28;20047;-69
2022/10/28 09:55:20;;;;;;;12.48;5.30;;;;;;;14.63;100.00;97582.53;4951356;28;20039;-70
2022/10/28 09:57:46;;;;;;;12.48;5.75;;;;;;;14.38;100.00;97585.66;4956040;28;20051;-68
2022/10/28 10:00:13;;;;;;;17.20;6.15;;;;;;;14.00;100.00;97584.66;4974782;28;20069;-70
2022/10/28 10:02:39;;;;;;;11.00;5.40;;;;;;;14.48;100.00;97576.00;4952293;28;20516;-72
2022/10/28 10:05:14;;;;;;;10.55;5.65;;;;;;;14.44;100.00;97583.38;4955945;28;20042;-68
2022/10/28 10:07:47;;;;;;;13.15;6.05;;;;;;;14.18;100.00;97579.47;4958221;28;20050;-68
2022/10/28 10:10:15;;;;;;;13.13;6.50;;;;;;;14.58;100.00;97585.59;4958833;28;20054;-70
2022/10/28 10:12:42;;;;;;;12.75;6.75;;;;;;;14.32;100.00;97585.19;4968529;28;20047;-68
2022/10/28 10:15:18;;;;;;;18.30;6.70;;;;;;;14.54;100.00;97586.31;4958568;28;20054;-69
2022/10/28 10:17:46;;;;;;;14.25;6.03;;;;;;;14.58;100.00;97591.91;4979621;28;20084;-68
2022/10/28 10:20:17;;;;;;;11.68;6.07;;;;;;;15.03;100.00;97592.13;4958273;28;20069;-70
2022/10/28 10:22:45;;;;;;;10.00;5.20;;;;;;;16.52;100.00;97590.50;4964199;28;20441;-69
2022/10/28 10:25:16;;;;;;;9.50;5.03;;;;;;;17.72;100.00;97591.50;4959935;28;20093;-70
2022/10/28 10:27:48;;;;;;;15.10;5.30;;;;;;;18.15;94.97;97590.81;4964265;28;20050;-69
2022/10/28 10:30:20;;;;;;;12.25;4.93;;;;;;;19.24;88.55;97586.69;4961443;28;20392;-70
2022/10/28 10:32:47;;;;;;;12.55;4.85;;;;;;;19.48;84.92;97596.09;4982178;28;20045;-69
2022/10/28 10:35:12;;;;;;;15.63;4.60;;;;;;;19.89;82.77;97600.28;4960964;28;20039;-70
2022/10/28 10:37:42;;;;;;;10.25;4.53;;;;;;;20.50;76.94;97602.59;4964047;28;20056;-69
2022/10/28 10:40:24;;;;;;;12.80;4.88;;;;;;;20.28;76.60;97599.22;4959698;28;20104;-68
2022/10/28 10:42:50;;;;;;;11.90;4.05;;;;;;;20.36;76.58;97598.72;4963222;28;20045;-70
2022/10/28 10:45:15;;;;;;;8.95;4.50;;;;;;;20.92;74.61;97587.53;4958864;28;20113;-70
2022/10/28 10:47:41;;;;;;;13.68;4.55;;;;;;;20.70;75.18;97588.94;4974284;28;20495;-70
2022/10/28 10:50:22;;;;;;;11.57;4.63;;;;;;;19.68;78.84;97594.41;4978470;28;20069;-69
2022/10/28 10:52:50;;;;;;;14.25;5.43;;;;;;;19.41;76.51;97593.34;4985563;28;20089;-69
2022/10/28 10:55:31;;;;;;;13.50;4.38;;;;;;;19.56;75.91;97585.75;4995774;28;20129;-70
2022/10/28 10:57:56;;;;;;;12.18;4.00;;;;;;;20.19;73.60;97588.56;4978633;28;20114;-69
2022/10/28 11:00:27;;;;;;;10.10;4.10;;;;;;;20.73;69.35;97588.91;4986439;28;20141;-70
2022/10/28 11:02:53;;;;;;;10.68;4.90;;;;;;;20.42;68.54;97583.19;4983081;28;20133;-69
2022/10/28 11:05:21;;;;;;;18.65;5.95;;;;;;;21.76;64.55;97577.75;4978397;28;20129;-69
2022/10/28 11:07:50;;;;;;;15.77;5.40;;;;;;;22.43;60.83;97579.94;4983184;28;20058;-70
2022/10/28 11:10:25;;;;;;;7.40;3.90;;;;;;;21.83;61.23;97579.66;4979383;28;20039;-69
2022/10/28 11:12:54;;;;;;;7.15;3.70;;;;;;;22.35;62.51;97578.47;4982212;28;20034;-70
2022/10/28 11:15:23;;;;;;;10.95;4.03;;;;;;;22.57;61.87;97567.72;4986162;28;20042;-69
2022/10/28 11:17:59;;;;;;;7.75;3.65;;;;;;;22.93;58.19;97567.09;4983429;28;20120;-69
2022/10/28 11:21:04;;;;;;;18.52;3.88;;;;;;;23.72;57.50;97559.91;4975840;28;20105;-70
2022/10/28 11:23:40;;;;;;;13.32;3.38;;;;;;;24.04;55.81;97561.19;4974088;28;20038;-69
2022/10/28 11:26:12;;;;;;;9.75;3.60;;;;;;;23.79;54.92;97559.72;4984365;28;20062;-69
2022/10/28 11:29:06;;;;;;;12.00;3.28;;;;;;;24.45;51.61;97561.81;4977702;28;20053;-71
2022/10/28 11:31:44;;;;;;;11.65;3.28;;;;;;;24.01;52.77;97551.66;4983693;28;20042;-71
2022/10/28 11:34:13;;;;;;;10.50;3.40;;;;;;;24.02;52.16;97549.63;4983115;28;20045;-70
2022/10/28 11:37:13;;;;;;;10.18;3.30;;;;;;;24.70;50.38;97550.75;4977385;28;20157;-69